Time,TemperatureF,DewpointF,PressureIn,WindDirection,WindDirectionDegrees,WindSpeedMPH,WindSpeedGustMPH,Humidity,HourlyPrecipIn,Conditions,Clouds,dailyrainin,SoftwareType,DateUTC
2013-10-07 00:04:00,54.6,47.9,30.02,NW,316,0.0,0.0,78,0.00,,---,0.01,VWS V13.01,2013-10-07 05:04:00,
2013-10-07 00:09:00,54.5,48.1,30.02,NW,316,0.0,0.0,79,0.00,,---,0.00,VWS V13.01,2013-10-07 05:09:00,
2013-10-07 00:14:00,54.5,48.1,30.02,NW,316,0.0,0.0,79,0.00,,---,0.00,VWS V13.01,2013-10-07 05:14:00,
2013-10-07 00:19:00,54.4,48.0,30.02,NW,316,0.0,0.0,79,0.00,,---,0.00,VWS V13.01,2013-10-07 05:19:00,
2013-10-07 00:24:00,54.3,47.9,30.02,NW,316,0.0,0.0,79,0.00,,---,0.00,VWS V13.01,2013-10-07 05:24:00,
2013-10-07 00:29:00,54.3,48.3,30.01,NW,316,0.0,0.0,80,0.00,,---,0.00,VWS V13.01,2013-10-07 05:29:00,
2013-10-07 00:34:00,54.3,48.6,30.02,NW,315,0.0,0.0,81,0.00,,---,0.00,VWS V13.01,2013-10-07 05:34:00,
2013-10-07 00:39:00,54.2,48.5,30.01,NW,316,0.0,0.0,81,0.00,,---,0.00,VWS V13.01,2013-10-07 05:39:00,
2013-10-07 00:45:00,54.1,48.4,30.01,NW,316,0.0,0.0,81,0.00,,---,0.00,VWS V13.01,2013-10-07 05:45:00,
2013-10-07 00:50:00,54.1,48.4,30.01,NW,316,0.0,0.0,81,0.00,,---,0.00,VWS V13.01,2013-10-07 05:50:00,
2013-10-07 00:55:00,54.0,48.3,30.01,NW,315,0.0,0.0,81,0.00,,---,0.00,VWS V13.01,2013-10-07 05:55:00,
2013-10-07 01:00:00,53.9,48.2,30.01,NW,315,0.0,0.0,81,0.00,,---,0.00,VWS V13.01,2013-10-07 06:00:00,
2013-10-07 01:05:00,53.8,48.1,30.01,NW,316,0.0,0.0,81,0.00,,---,0.00,VWS V13.01,2013-10-07 06:05:00,
2013-10-07 01:10:00,53.7,48.3,30.01,NW,316,0.0,0.0,82,0.00,,---,0.00,VWS V13.01,2013-10-07 06:10:00,
2013-10-07 01:15:00,53.7,48.3,30.00,NW,316,0.0,0.0,82,0.00,,---,0.00,VWS V13.01,2013-10-07 06:15:00,
2013-10-07 01:20:00,53.6,48.2,30.00,NW,315,0.0,0.0,82,0.00,,---,0.00,VWS V13.01,2013-10-07 06:20:00,
2013-10-07 01:25:00,53.5,48.5,30.01,NW,316,0.0,0.0,83,0.00,,---,0.00,VWS V13.01,2013-10-07 06:25:00,
2013-10-07 01:30:00,53.5,48.5,30.01,NW,316,0.0,0.0,83,0.00,,---,0.00,VWS V13.01,2013-10-07 06:30:00,
2013-10-07 01:35:00,53.5,48.8,30.01,NW,316,0.0,2.0,84,0.00,,---,0.00,VWS V13.01,2013-10-07 06:35:00,
2013-10-07 01:40:00,53.5,48.8,30.01,NW,316,0.0,0.0,84,0.00,,---,0.00,VWS V13.01,2013-10-07 06:40:00,
2013-10-07 01:46:00,53.4,48.7,30.01,NW,316,0.0,0.0,84,0.00,,---,0.00,VWS V13.01,2013-10-07 06:46:00,
2013-10-07 01:51:00,53.3,48.6,30.01,NW,316,0.0,0.0,84,0.00,,---,0.00,VWS V13.01,2013-10-07 06:51:00,
2013-10-07 01:56:00,53.3,48.6,30.01,NW,316,0.0,0.0,84,0.00,,---,0.00,VWS V13.01,2013-10-07 06:56:00,
2013-10-07 02:01:00,53.3,48.6,30.02,NW,315,0.0,0.0,84,0.00,,---,0.00,VWS V13.01,2013-10-07 07:01:00,
2013-10-07 02:06:00,53.2,48.5,30.02,NW,316,0.0,0.0,84,0.00,,---,0.00,VWS V13.01,2013-10-07 07:06:00,
2013-10-07 02:11:00,53.1,48.4,30.02,NW,316,0.0,0.0,84,0.00,,---,0.00,VWS V13.01,2013-10-07 07:11:00,
2013-10-07 02:16:00,53.1,48.4,30.02,NW,316,0.0,0.0,84,0.00,,---,0.00,VWS V13.01,2013-10-07 07:16:00,
2013-10-07 02:21:00,53.0,48.6,30.02,NW,315,0.0,0.0,85,0.00,,---,0.00,VWS V13.01,2013-10-07 07:21:00,
2013-10-07 02:26:00,53.0,48.6,30.02,NW,316,0.0,0.0,85,0.00,,---,0.00,VWS V13.01,2013-10-07 07:26:00,
2013-10-07 02:31:00,52.9,48.5,30.02,NW,316,0.0,0.0,85,0.00,,---,0.00,VWS V13.01,2013-10-07 07:31:00,
2013-10-07 02:36:00,52.9,48.5,30.02,NW,316,0.0,1.0,85,0.00,,---,0.00,VWS V13.01,2013-10-07 07:36:00,
2013-10-07 02:41:00,52.9,48.8,30.02,NW,316,0.0,0.0,86,0.00,,---,0.00,VWS V13.01,2013-10-07 07:41:00,
2013-10-07 02:47:00,52.9,48.8,30.02,NW,313,0.0,5.0,86,0.00,,---,0.00,VWS V13.01,2013-10-07 07:47:00,
2013-10-07 02:52:00,52.9,48.8,30.02,NW,310,0.0,5.0,86,0.00,,---,0.00,VWS V13.01,2013-10-07 07:52:00,
2013-10-07 02:57:00,52.9,48.8,30.02,NW,311,0.0,5.0,86,0.00,,---,0.00,VWS V13.01,2013-10-07 07:57:00,
2013-10-07 03:02:00,52.9,48.8,30.02,WNW,302,0.0,5.0,86,0.00,,---,0.00,VWS V13.01,2013-10-07 08:02:00,
2013-10-07 03:07:00,52.9,48.8,30.02,NW,314,0.0,5.0,86,0.00,,---,0.00,VWS V13.01,2013-10-07 08:07:00,
2013-10-07 03:12:00,53.0,48.9,30.02,WNW,295,0.0,4.0,86,0.00,,---,0.00,VWS V13.01,2013-10-07 08:12:00,
2013-10-07 03:17:00,53.0,48.9,30.02,WNW,296,0.0,4.0,86,0.00,,---,0.00,VWS V13.01,2013-10-07 08:17:00,
2013-10-07 03:22:00,53.1,49.0,30.02,WNW,300,0.0,4.0,86,0.00,,---,0.00,VWS V13.01,2013-10-07 08:22:00,
2013-10-07 03:27:00,53.2,49.4,30.02,NW,304,0.0,4.0,87,0.00,,---,0.00,VWS V13.01,2013-10-07 08:27:00,
2013-10-07 03:32:00,53.2,49.4,30.02,NW,306,0.0,4.0,87,0.00,,---,0.00,VWS V13.01,2013-10-07 08:32:00,
2013-10-07 03:37:00,53.3,49.5,30.02,NW,313,0.0,1.0,87,0.00,,---,0.00,VWS V13.01,2013-10-07 08:37:00,
2013-10-07 03:42:00,53.3,49.5,30.02,NW,305,0.0,3.0,87,0.00,,---,0.00,VWS V13.01,2013-10-07 08:42:00,
2013-10-07 03:48:00,53.3,49.5,30.02,NW,306,0.0,3.0,87,0.00,,---,0.00,VWS V13.01,2013-10-07 08:48:00,
2013-10-07 03:53:00,53.3,49.5,30.02,NW,306,0.0,3.0,87,0.00,,---,0.00,VWS V13.01,2013-10-07 08:53:00,
2013-10-07 03:58:00,53.2,49.4,30.03,NW,306,0.0,3.0,87,0.00,,---,0.00,VWS V13.01,2013-10-07 08:58:00,
2013-10-07 04:03:00,53.2,49.4,30.03,NW,306,0.0,3.0,87,0.00,,---,0.00,VWS V13.01,2013-10-07 09:03:00,
2013-10-07 04:08:00,53.1,49.3,30.03,NW,306,0.0,0.0,87,0.00,,---,0.00,VWS V13.01,2013-10-07 09:08:00,
2013-10-07 04:13:00,53.1,49.3,30.03,NW,306,0.0,0.0,87,0.00,,---,0.00,VWS V13.01,2013-10-07 09:13:00,
2013-10-07 04:18:00,53.0,49.2,30.03,NW,306,0.0,0.0,87,0.00,,---,0.00,VWS V13.01,2013-10-07 09:18:00,
2013-10-07 04:23:00,52.9,49.5,30.03,NW,306,0.0,0.0,88,0.00,,---,0.00,VWS V13.01,2013-10-07 09:23:00,
2013-10-07 04:28:00,52.7,49.0,30.04,NW,306,0.0,1.0,87,0.00,,---,0.00,VWS V13.01,2013-10-07 09:28:00,
2013-10-07 04:33:00,52.6,48.8,30.04,NW,306,0.0,1.0,87,0.00,,---,0.00,VWS V13.01,2013-10-07 09:33:00,
2013-10-07 04:38:00,52.5,48.8,30.04,NW,306,0.0,0.0,87,0.00,,---,0.00,VWS V13.01,2013-10-07 09:38:00,
2013-10-07 04:43:00,52.3,48.5,30.04,NW,306,0.0,0.0,87,0.00,,---,0.00,VWS V13.01,2013-10-07 09:43:00,
2013-10-07 04:49:00,52.2,48.5,30.04,NW,306,0.0,0.0,87,0.00,,---,0.00,VWS V13.01,2013-10-07 09:49:00,
2013-10-07 04:54:00,52.1,48.4,30.05,NW,306,0.0,0.0,87,0.00,,---,0.00,VWS V13.01,2013-10-07 09:54:00,
2013-10-07 04:59:00,51.9,48.2,30.05,NW,306,0.0,0.0,87,0.00,,---,0.00,VWS V13.01,2013-10-07 09:59:00,
2013-10-07 05:04:00,51.8,48.1,30.05,NW,306,0.0,0.0,87,0.00,,---,0.00,VWS V13.01,2013-10-07 10:04:00,
2013-10-07 05:09:00,51.6,47.9,30.05,NW,306,0.0,0.0,87,0.00,,---,0.00,VWS V13.01,2013-10-07 10:09:00,
2013-10-07 05:14:00,51.5,47.8,30.05,NW,306,0.0,2.0,87,0.00,,---,0.00,VWS V13.01,2013-10-07 10:14:00,
2013-10-07 05:19:00,51.4,47.7,30.05,NW,306,0.0,2.0,87,0.00,,---,0.00,VWS V13.01,2013-10-07 10:19:00,
2013-10-07 05:24:00,51.3,47.6,30.05,WNW,298,0.0,4.0,87,0.00,,---,0.00,VWS V13.01,2013-10-07 10:24:00,
2013-10-07 05:29:00,51.3,47.6,30.05,NNW,331,0.0,4.0,87,0.00,,---,0.00,VWS V13.01,2013-10-07 10:29:00,
2013-10-07 05:34:00,51.2,47.5,30.06,NNW,329,2.0,4.0,87,0.00,,---,0.00,VWS V13.01,2013-10-07 10:34:00,
2013-10-07 05:39:00,51.2,47.5,30.06,NNW,329,0.0,0.0,87,0.00,,---,0.00,VWS V13.01,2013-10-07 10:39:00,
2013-10-07 05:44:00,51.2,47.5,30.06,NNW,329,1.0,1.0,87,0.00,,---,0.00,VWS V13.01,2013-10-07 10:44:00,
2013-10-07 05:50:00,51.2,47.8,30.06,NNW,329,0.0,1.0,88,0.00,,---,0.00,VWS V13.01,2013-10-07 10:50:00,
2013-10-07 05:55:00,51.2,47.8,30.06,NNW,329,0.0,1.0,88,0.00,,---,0.00,VWS V13.01,2013-10-07 10:55:00,
2013-10-07 06:00:00,51.2,47.8,30.06,NNW,329,0.0,1.0,88,0.00,,---,0.00,VWS V13.01,2013-10-07 11:00:00,
2013-10-07 06:05:00,51.2,47.8,30.06,NNW,329,0.0,1.0,88,0.00,,---,0.00,VWS V13.01,2013-10-07 11:05:00,
2013-10-07 06:10:00,51.1,47.7,30.06,NNW,329,0.0,0.0,88,0.00,,---,0.00,VWS V13.01,2013-10-07 11:10:00,
2013-10-07 06:15:00,51.1,47.7,30.07,NNW,329,0.0,0.0,88,0.00,,---,0.00,VWS V13.01,2013-10-07 11:15:00,
2013-10-07 06:20:00,51.1,48.0,30.07,NNW,329,0.0,0.0,89,0.00,,---,0.00,VWS V13.01,2013-10-07 11:20:00,
2013-10-07 06:25:00,51.2,48.1,30.07,NNW,329,0.0,0.0,89,0.00,,---,0.00,VWS V13.01,2013-10-07 11:25:00,
2013-10-07 06:30:00,51.1,48.0,30.07,NNW,329,0.0,0.0,89,0.00,,---,0.00,VWS V13.01,2013-10-07 11:30:00,
2013-10-07 06:35:00,51.0,47.9,30.07,WNW,303,1.0,1.0,89,0.00,,---,0.00,VWS V13.01,2013-10-07 11:35:00,
2013-10-07 06:40:00,50.9,47.8,30.07,WNW,300,0.0,0.0,89,0.00,,---,0.00,VWS V13.01,2013-10-07 11:40:00,
2013-10-07 06:45:00,50.9,47.8,30.07,WNW,300,0.0,0.0,89,0.00,,---,0.00,VWS V13.01,2013-10-07 11:45:00,
2013-10-07 06:51:00,50.8,47.7,30.07,WNW,299,0.0,3.0,89,0.00,,---,0.00,VWS V13.01,2013-10-07 11:51:00,
2013-10-07 06:56:00,50.8,47.7,30.07,WNW,300,0.0,3.0,89,0.00,,---,0.00,VWS V13.01,2013-10-07 11:56:00,
2013-10-07 07:01:00,50.7,47.6,30.07,NNW,328,0.0,3.0,89,0.00,,---,0.00,VWS V13.01,2013-10-07 12:01:00,
2013-10-07 07:06:00,50.7,47.6,30.07,WNW,288,4.0,4.0,89,0.00,,---,0.00,VWS V13.01,2013-10-07 12:06:00,
2013-10-07 07:11:00,50.7,47.6,30.08,WNW,288,0.0,0.0,89,0.00,,---,0.00,VWS V13.01,2013-10-07 12:11:00,
2013-10-07 07:16:00,50.7,47.6,30.08,WNW,288,0.0,0.0,89,0.00,,---,0.00,VWS V13.01,2013-10-07 12:16:00,
2013-10-07 07:21:00,50.7,47.6,30.08,WNW,290,0.0,0.0,89,0.00,,---,0.00,VWS V13.01,2013-10-07 12:21:00,
2013-10-07 07:26:00,50.7,47.6,30.08,WNW,289,0.0,1.0,89,0.00,,---,0.00,VWS V13.01,2013-10-07 12:26:00,
2013-10-07 07:31:00,50.7,47.6,30.08,WNW,288,0.0,1.0,89,0.00,,---,0.00,VWS V13.01,2013-10-07 12:31:00,
2013-10-07 07:36:00,50.7,47.6,30.08,WNW,289,0.0,1.0,89,0.00,,---,0.00,VWS V13.01,2013-10-07 12:36:00,
2013-10-07 07:41:00,50.7,47.6,30.09,WNW,289,0.0,1.0,89,0.00,,---,0.00,VWS V13.01,2013-10-07 12:41:00,
2013-10-07 07:46:00,50.7,47.9,30.09,NW,312,0.0,2.0,90,0.00,,---,0.00,VWS V13.01,2013-10-07 12:46:00,
2013-10-07 07:52:00,50.8,48.0,30.09,NW,312,0.0,2.0,90,0.00,,---,0.00,VWS V13.01,2013-10-07 12:52:00,
2013-10-07 07:57:00,50.8,48.0,30.09,NW,313,0.0,2.0,90,0.00,,---,0.00,VWS V13.01,2013-10-07 12:57:00,
2013-10-07 08:02:00,50.9,48.1,30.09,NW,310,0.0,2.0,90,0.00,,---,0.00,VWS V13.01,2013-10-07 13:02:00,
2013-10-07 08:07:00,51.0,48.2,30.09,NW,309,0.0,3.0,90,0.00,,---,0.00,VWS V13.01,2013-10-07 13:07:00,
2013-10-07 08:12:00,51.1,48.3,30.10,NW,310,0.0,0.0,90,0.00,,---,0.00,VWS V13.01,2013-10-07 13:12:00,
2013-10-07 08:17:00,51.2,48.4,30.10,NW,310,0.0,0.0,90,0.00,,---,0.00,VWS V13.01,2013-10-07 13:17:00,
2013-10-07 08:22:00,51.5,48.7,30.10,West,279,0.0,2.0,90,0.00,,---,0.00,VWS V13.01,2013-10-07 13:22:00,
2013-10-07 08:27:00,51.8,49.3,30.11,WNW,290,0.0,2.0,91,0.00,,---,0.00,VWS V13.01,2013-10-07 13:27:00,
2013-10-07 08:32:00,52.1,49.6,30.11,WNW,290,0.0,2.0,91,0.00,,---,0.00,VWS V13.01,2013-10-07 13:32:00,
2013-10-07 08:37:00,52.3,49.8,30.11,WNW,294,0.0,2.0,91,0.00,,---,0.00,VWS V13.01,2013-10-07 13:37:00,
2013-10-07 08:42:00,52.7,50.2,30.11,WNW,294,0.0,2.0,91,0.00,,---,0.00,VWS V13.01,2013-10-07 13:42:00,
2013-10-07 08:47:00,53.0,50.5,30.11,West,269,0.0,2.0,91,0.00,,---,0.00,VWS V13.01,2013-10-07 13:47:00,
2013-10-07 08:53:00,53.3,50.7,30.11,WNW,296,0.0,2.0,91,0.00,,---,0.00,VWS V13.01,2013-10-07 13:53:00,
2013-10-07 08:58:00,53.6,51.0,30.11,WNW,296,0.0,2.0,91,0.00,,---,0.00,VWS V13.01,2013-10-07 13:58:00,
2013-10-07 09:03:00,54.0,51.4,30.11,West,276,0.0,4.0,91,0.00,,---,0.00,VWS V13.01,2013-10-07 14:03:00,
2013-10-07 09:08:00,54.3,51.7,30.11,NW,317,0.0,0.0,91,0.00,,---,0.00,VWS V13.01,2013-10-07 14:08:00,
2013-10-07 09:13:00,54.6,52.0,30.12,NW,321,0.0,5.0,91,0.00,,---,0.00,VWS V13.01,2013-10-07 14:13:00,
2013-10-07 09:18:00,54.9,52.3,30.12,NW,314,1.0,6.0,91,0.00,,---,0.00,VWS V13.01,2013-10-07 14:18:00,
2013-10-07 09:23:00,55.0,52.4,30.12,NW,314,0.0,6.0,91,0.00,,---,0.00,VWS V13.01,2013-10-07 14:23:00,
2013-10-07 09:28:00,55.2,52.3,30.12,NW,318,0.0,6.0,90,0.00,,---,0.00,VWS V13.01,2013-10-07 14:28:00,
2013-10-07 09:33:00,55.5,52.6,30.12,West,281,0.0,6.0,90,0.00,,---,0.00,VWS V13.01,2013-10-07 14:33:00,
2013-10-07 09:38:00,55.8,52.9,30.12,NW,314,0.0,0.0,90,0.00,,---,0.00,VWS V13.01,2013-10-07 14:38:00,
2013-10-07 09:43:00,56.0,52.8,30.12,WNW,303,0.0,0.0,89,0.00,,---,0.00,VWS V13.01,2013-10-07 14:43:00,
2013-10-07 09:48:00,56.3,53.1,30.12,WNW,301,2.0,3.0,89,0.00,,---,0.00,VWS V13.01,2013-10-07 14:48:00,
2013-10-07 09:54:00,56.6,53.1,30.12,NW,311,0.0,4.0,88,0.00,,---,0.00,VWS V13.01,2013-10-07 14:54:00,
2013-10-07 09:59:00,56.7,52.2,30.12,West,276,0.0,6.0,85,0.00,,---,0.00,VWS V13.01,2013-10-07 14:59:00,
2013-10-07 10:04:00,57.0,52.2,30.12,NW,315,0.0,6.0,84,0.00,,---,0.00,VWS V13.01,2013-10-07 15:04:00,
2013-10-07 10:09:00,57.4,52.6,30.12,WSW,258,0.0,4.0,84,0.00,,---,0.00,VWS V13.01,2013-10-07 15:09:00,
2013-10-07 10:14:00,57.7,51.9,30.12,NW,304,4.0,5.0,81,0.00,,---,0.00,VWS V13.01,2013-10-07 15:14:00,
2013-10-07 10:19:00,58.0,50.8,30.12,NNW,333,0.0,7.0,77,0.00,,---,0.00,VWS V13.01,2013-10-07 15:19:00,
2013-10-07 10:24:00,58.4,50.5,30.13,WNW,298,1.0,7.0,75,0.00,,---,0.00,VWS V13.01,2013-10-07 15:24:00,
2013-10-07 10:29:00,58.7,50.1,30.12,WNW,301,0.0,7.0,73,0.00,,---,0.00,VWS V13.01,2013-10-07 15:29:00,
2013-10-07 10:34:00,59.0,50.4,30.12,WNW,302,0.0,7.0,73,0.00,,---,0.00,VWS V13.01,2013-10-07 15:34:00,
2013-10-07 10:39:00,59.3,50.3,30.12,NNE,19,0.0,10.0,72,0.00,,---,0.00,VWS V13.01,2013-10-07 15:39:00,
2013-10-07 10:44:00,59.7,50.3,30.12,NNW,338,0.0,10.0,71,0.00,,---,0.00,VWS V13.01,2013-10-07 15:44:00,
2013-10-07 10:49:00,60.1,50.3,30.12,NE,49,0.0,10.0,70,0.00,,---,0.00,VWS V13.01,2013-10-07 15:49:00,
2013-10-07 10:54:00,60.5,50.7,30.12,NW,312,3.0,10.0,70,0.00,,---,0.00,VWS V13.01,2013-10-07 15:54:00,
2013-10-07 11:00:00,60.8,50.6,30.12,NW,309,4.0,10.0,69,0.00,,---,0.00,VWS V13.01,2013-10-07 16:00:00,
2013-10-07 11:05:00,61.1,50.1,30.12,NW,307,0.0,10.0,67,0.00,,---,0.00,VWS V13.01,2013-10-07 16:05:00,
2013-10-07 11:10:00,61.4,50.0,30.12,NW,324,3.0,5.0,66,0.00,,---,0.00,VWS V13.01,2013-10-07 16:10:00,
2013-10-07 11:15:00,61.7,50.6,30.13,WNW,290,4.0,5.0,67,0.00,,---,0.00,VWS V13.01,2013-10-07 16:15:00,
2013-10-07 11:20:00,62.0,50.5,30.12,West,272,0.0,5.0,66,0.00,,---,0.00,VWS V13.01,2013-10-07 16:20:00,
2013-10-07 11:25:00,62.3,50.8,30.12,NW,306,0.0,5.0,66,0.00,,---,0.00,VWS V13.01,2013-10-07 16:25:00,
2013-10-07 11:30:00,62.5,50.6,30.12,West,261,0.0,5.0,65,0.00,,---,0.00,VWS V13.01,2013-10-07 16:30:00,
2013-10-07 11:35:00,62.8,50.9,30.12,NW,319,2.0,5.0,65,0.00,,---,0.00,VWS V13.01,2013-10-07 16:35:00,
2013-10-07 11:40:00,63.0,51.1,30.12,West,267,0.0,4.0,65,0.00,,---,0.00,VWS V13.01,2013-10-07 16:40:00,
2013-10-07 11:45:00,63.2,50.8,30.12,NW,311,2.0,10.0,64,0.00,,---,0.00,VWS V13.01,2013-10-07 16:45:00,
2013-10-07 11:50:00,63.4,51.4,30.12,NNW,337,4.0,10.0,65,0.00,,---,0.00,VWS V13.01,2013-10-07 16:50:00,
2013-10-07 11:56:00,63.7,51.7,30.12,NNW,327,2.0,10.0,65,0.00,,---,0.00,VWS V13.01,2013-10-07 16:56:00,
2013-10-07 12:01:00,64.0,52.0,30.12,NW,326,0.0,10.0,65,0.00,,---,0.00,VWS V13.01,2013-10-07 17:01:00,
2013-10-07 12:06:00,64.4,52.0,30.12,NW,309,5.0,10.0,64,0.00,,---,0.00,VWS V13.01,2013-10-07 17:06:00,
2013-10-07 12:11:00,64.8,51.5,30.11,NW,306,0.0,6.0,62,0.00,,---,0.00,VWS V13.01,2013-10-07 17:11:00,
2013-10-07 12:16:00,65.0,52.1,30.12,WSW,251,0.0,6.0,63,0.00,,---,0.00,VWS V13.01,2013-10-07 17:16:00,
2013-10-07 12:21:00,65.3,52.0,30.11,WNW,302,2.0,6.0,62,0.00,,---,0.00,VWS V13.01,2013-10-07 17:21:00,
2013-10-07 12:26:00,65.7,52.3,30.11,NNE,13,0.0,7.0,62,0.00,,---,0.00,VWS V13.01,2013-10-07 17:26:00,
2013-10-07 12:31:00,65.9,51.6,30.11,NW,307,0.0,7.0,60,0.00,,---,0.00,VWS V13.01,2013-10-07 17:31:00,
2013-10-07 12:36:00,66.3,52.9,30.11,WNW,296,1.0,9.0,62,0.00,,---,0.00,VWS V13.01,2013-10-07 17:36:00,
2013-10-07 12:41:00,66.7,52.8,30.10,NW,319,0.0,6.0,61,0.00,,---,0.00,VWS V13.01,2013-10-07 17:41:00,
2013-10-07 12:46:00,67.0,52.7,30.10,NW,326,0.0,7.0,60,0.00,,---,0.00,VWS V13.01,2013-10-07 17:46:00,
2013-10-07 12:52:00,67.2,52.4,30.10,NNW,342,2.0,7.0,59,0.00,,---,0.00,VWS V13.01,2013-10-07 17:52:00,
2013-10-07 12:57:00,67.4,52.6,30.10,NNW,334,1.0,7.0,59,0.00,,---,0.00,VWS V13.01,2013-10-07 17:57:00,
2013-10-07 13:02:00,67.6,52.3,30.10,WNW,302,1.0,7.0,58,0.00,,---,0.00,VWS V13.01,2013-10-07 18:02:00,
2013-10-07 13:07:00,67.7,53.3,30.10,WNW,302,0.0,7.0,60,0.00,,---,0.00,VWS V13.01,2013-10-07 18:07:00,
2013-10-07 13:12:00,67.9,53.1,30.10,SW,227,1.0,1.0,59,0.00,,---,0.00,VWS V13.01,2013-10-07 18:12:00,
2013-10-07 13:17:00,68.0,52.2,30.10,WSW,257,2.0,5.0,57,0.00,,---,0.00,VWS V13.01,2013-10-07 18:17:00,
2013-10-07 13:22:00,68.0,52.7,30.09,NNW,333,0.0,5.0,58,0.00,,---,0.00,VWS V13.01,2013-10-07 18:22:00,
2013-10-07 13:27:00,67.9,52.1,30.09,WNW,298,3.0,7.0,57,0.00,,---,0.00,VWS V13.01,2013-10-07 18:27:00,
2013-10-07 13:32:00,68.6,53.2,30.09,NNW,342,0.0,7.0,58,0.00,,---,0.00,VWS V13.01,2013-10-07 18:32:00,
2013-10-07 13:38:00,68.7,52.9,30.08,NW,319,0.0,6.0,57,0.01,,---,0.01,VWS V13.01,2013-10-07 18:38:00,
2013-10-07 13:43:00,68.8,53.4,30.08,NW,313,0.0,6.0,58,0.01,,---,0.01,VWS V13.01,2013-10-07 18:43:00,
2013-10-07 13:48:00,68.9,53.1,30.08,WSW,258,0.0,6.0,57,0.01,,---,0.01,VWS V13.01,2013-10-07 18:48:00,
2013-10-07 13:53:00,69.3,53.0,30.08,NW,325,0.0,7.0,56,0.01,,---,0.01,VWS V13.01,2013-10-07 18:53:00,
2013-10-07 13:58:00,69.3,53.0,30.08,West,276,0.0,7.0,56,0.01,,---,0.01,VWS V13.01,2013-10-07 18:58:00,
2013-10-07 14:03:00,69.6,52.7,30.08,SW,233,2.0,7.0,55,0.01,,---,0.01,VWS V13.01,2013-10-07 19:03:00,
2013-10-07 14:08:00,69.8,52.4,30.08,NW,306,6.0,7.0,54,0.01,,---,0.01,VWS V13.01,2013-10-07 19:08:00,
2013-10-07 14:13:00,69.9,53.0,30.08,NW,319,0.0,7.0,55,0.01,,---,0.01,VWS V13.01,2013-10-07 19:13:00,
2013-10-07 14:18:00,70.5,53.1,30.08,West,277,2.0,7.0,54,0.01,,---,0.01,VWS V13.01,2013-10-07 19:18:00,
2013-10-07 14:23:00,70.1,52.7,30.08,NW,321,0.0,7.0,54,0.01,,---,0.01,VWS V13.01,2013-10-07 19:23:00,
2013-10-07 14:28:00,70.2,52.3,30.08,West,268,0.0,7.0,53,0.01,,---,0.01,VWS V13.01,2013-10-07 19:28:00,
2013-10-07 14:34:00,70.4,52.0,30.08,WSW,253,0.0,7.0,52,0.01,,---,0.01,VWS V13.01,2013-10-07 19:34:00,
2013-10-07 14:39:00,70.5,52.6,30.08,SW,230,2.0,5.0,53,0.00,,---,0.01,VWS V13.01,2013-10-07 19:39:00,
2013-10-07 14:44:00,70.7,51.7,30.07,West,275,0.0,5.0,51,0.00,,---,0.01,VWS V13.01,2013-10-07 19:44:00,
2013-10-07 14:49:00,71.1,52.6,30.07,South,173,2.0,5.0,52,0.00,,---,0.01,VWS V13.01,2013-10-07 19:49:00,
2013-10-07 14:54:00,71.6,52.0,30.07,SW,219,2.0,5.0,50,0.00,,---,0.01,VWS V13.01,2013-10-07 19:54:00,
2013-10-07 14:59:00,71.9,52.3,30.07,SW,228,0.0,5.0,50,0.00,,---,0.01,VWS V13.01,2013-10-07 19:59:00,
2013-10-07 15:04:00,72.0,51.8,30.07,SW,229,0.0,5.0,49,0.00,,---,0.01,VWS V13.01,2013-10-07 20:04:00,
2013-10-07 15:09:00,72.2,51.4,30.07,SW,232,2.0,4.0,48,0.00,,---,0.01,VWS V13.01,2013-10-07 20:09:00,
2013-10-07 15:14:00,71.3,51.2,30.07,WSW,246,0.0,5.0,49,0.00,,---,0.01,VWS V13.01,2013-10-07 20:14:00,
2013-10-07 15:19:00,71.2,51.1,30.07,WSW,246,0.0,5.0,49,0.00,,---,0.01,VWS V13.01,2013-10-07 20:19:00,
2013-10-07 15:24:00,71.5,50.8,30.07,WSW,246,0.0,5.0,48,0.00,,---,0.01,VWS V13.01,2013-10-07 20:24:00,
2013-10-07 15:29:00,72.0,50.7,30.07,NW,306,0.0,5.0,47,0.00,,---,0.01,VWS V13.01,2013-10-07 20:29:00,
2013-10-07 15:35:00,71.9,51.2,30.06,NW,306,0.0,5.0,48,0.00,,---,0.01,VWS V13.01,2013-10-07 20:35:00,
2013-10-07 15:40:00,72.3,51.5,30.06,NNE,12,0.0,2.0,48,0.00,,---,0.01,VWS V13.01,2013-10-07 20:40:00,
2013-10-07 15:45:00,72.9,50.3,30.06,NE,34,3.0,7.0,45,0.00,,---,0.01,VWS V13.01,2013-10-07 20:45:00,
2013-10-07 15:50:00,73.0,51.6,30.06,NE,40,4.0,9.0,47,0.00,,---,0.01,VWS V13.01,2013-10-07 20:50:00,
2013-10-07 15:55:00,73.2,50.6,30.06,NE,34,2.0,9.0,45,0.00,,---,0.01,VWS V13.01,2013-10-07 20:55:00,
2013-10-07 16:00:00,73.3,50.7,30.06,NE,46,1.0,9.0,45,0.00,,---,0.01,VWS V13.01,2013-10-07 21:00:00,
2013-10-07 16:05:00,73.2,50.6,30.06,NE,41,0.0,9.0,45,0.00,,---,0.01,VWS V13.01,2013-10-07 21:05:00,
2013-10-07 16:10:00,73.1,50.5,30.06,NNE,29,0.0,8.0,45,0.00,,---,0.01,VWS V13.01,2013-10-07 21:10:00,
2013-10-07 16:15:00,73.0,49.8,30.06,ENE,59,6.0,8.0,44,0.00,,---,0.01,VWS V13.01,2013-10-07 21:15:00,
2013-10-07 16:20:00,72.8,49.0,30.06,NE,40,4.0,9.0,43,0.00,,---,0.01,VWS V13.01,2013-10-07 21:20:00,
2013-10-07 16:25:00,72.8,50.2,30.06,NE,51,6.0,12.0,45,0.00,,---,0.01,VWS V13.01,2013-10-07 21:25:00,
2013-10-07 16:30:00,72.6,49.5,30.06,ENE,65,5.0,12.0,44,0.00,,---,0.01,VWS V13.01,2013-10-07 21:30:00,
2013-10-07 16:36:00,72.4,49.3,30.06,NE,44,5.0,12.0,44,0.00,,---,0.01,VWS V13.01,2013-10-07 21:36:00,
2013-10-07 16:41:00,72.2,49.1,30.06,NE,54,2.0,6.0,44,0.00,,---,0.01,VWS V13.01,2013-10-07 21:41:00,
2013-10-07 16:46:00,72.1,49.6,30.06,NE,53,2.0,6.0,45,0.00,,---,0.01,VWS V13.01,2013-10-07 21:46:00,
2013-10-07 16:51:00,72.0,49.5,30.06,NE,38,2.0,7.0,45,0.00,,---,0.01,VWS V13.01,2013-10-07 21:51:00,
2013-10-07 16:56:00,71.9,50.6,30.06,NE,40,0.0,7.0,47,0.00,,---,0.01,VWS V13.01,2013-10-07 21:56:00,
2013-10-07 17:01:00,71.8,49.9,30.06,NE,40,0.0,7.0,46,0.00,,---,0.01,VWS V13.01,2013-10-07 22:01:00,
2013-10-07 17:06:00,71.7,49.8,30.06,NE,40,0.0,7.0,46,0.00,,---,0.01,VWS V13.01,2013-10-07 22:06:00,
2013-10-07 17:11:00,71.6,50.3,30.07,NE,40,0.0,4.0,47,0.00,,---,0.01,VWS V13.01,2013-10-07 22:11:00,
2013-10-07 17:16:00,71.5,50.2,30.07,NE,44,1.0,7.0,47,0.00,,---,0.01,VWS V13.01,2013-10-07 22:16:00,
2013-10-07 17:21:00,71.3,50.0,30.06,NE,44,0.0,7.0,47,0.00,,---,0.01,VWS V13.01,2013-10-07 22:21:00,
2013-10-07 17:26:00,71.3,48.9,30.06,NE,42,2.0,7.0,45,0.00,,---,0.01,VWS V13.01,2013-10-07 22:26:00,
2013-10-07 17:32:00,71.1,48.1,30.07,NE,36,2.0,7.0,44,0.00,,---,0.01,VWS V13.01,2013-10-07 22:32:00,
2013-10-07 17:37:00,70.9,48.5,30.07,NE,34,1.0,7.0,45,0.00,,---,0.01,VWS V13.01,2013-10-07 22:37:00,
2013-10-07 17:42:00,70.8,47.8,30.07,NE,35,0.0,5.0,44,0.00,,---,0.01,VWS V13.01,2013-10-07 22:42:00,
2013-10-07 17:47:00,70.5,47.6,30.07,NE,38,3.0,7.0,44,0.00,,---,0.01,VWS V13.01,2013-10-07 22:47:00,
2013-10-07 17:52:00,70.2,47.9,30.07,NE,40,4.0,7.0,45,0.00,,---,0.01,VWS V13.01,2013-10-07 22:52:00,
2013-10-07 17:57:00,70.1,47.2,30.07,NE,42,0.0,7.0,44,0.00,,---,0.01,VWS V13.01,2013-10-07 22:57:00,
2013-10-07 18:02:00,70.0,48.3,30.07,NE,43,3.0,7.0,46,0.00,,---,0.01,VWS V13.01,2013-10-07 23:02:00,
2013-10-07 18:07:00,69.9,48.2,30.07,NE,42,0.0,7.0,46,0.00,,---,0.01,VWS V13.01,2013-10-07 23:07:00,
2013-10-07 18:12:00,69.9,48.8,30.07,NE,43,0.0,3.0,47,0.00,,---,0.01,VWS V13.01,2013-10-07 23:12:00,
2013-10-07 18:17:00,69.6,48.5,30.07,NE,42,4.0,5.0,47,0.00,,---,0.01,VWS V13.01,2013-10-07 23:17:00,
2013-10-07 18:22:00,69.3,48.8,30.07,NE,43,0.0,5.0,48,0.00,,---,0.01,VWS V13.01,2013-10-07 23:22:00,
2013-10-07 18:27:00,69.0,48.5,30.07,NE,43,0.0,5.0,48,0.00,,---,0.01,VWS V13.01,2013-10-07 23:27:00,
2013-10-07 18:33:00,68.8,48.3,30.07,NE,43,0.0,5.0,48,0.00,,---,0.01,VWS V13.01,2013-10-07 23:33:00,
2013-10-07 18:38:00,68.5,48.6,30.07,NE,42,0.0,0.0,49,0.00,,---,0.01,VWS V13.01,2013-10-07 23:38:00,
2013-10-07 18:43:00,68.2,48.9,30.08,NE,43,0.0,4.0,50,0.00,,---,0.01,VWS V13.01,2013-10-07 23:43:00,
2013-10-07 18:48:00,67.9,48.6,30.08,NE,42,0.0,4.0,50,0.00,,---,0.01,VWS V13.01,2013-10-07 23:48:00,
2013-10-07 18:53:00,67.5,48.8,30.08,NE,42,0.0,4.0,51,0.00,,---,0.01,VWS V13.01,2013-10-07 23:53:00,
2013-10-07 18:59:00,67.1,48.4,30.08,NE,42,0.0,4.0,51,0.00,,---,0.01,VWS V13.01,2013-10-07 23:59:00,
2013-10-07 19:04:00,66.7,48.5,30.08,NE,42,0.0,4.0,52,0.00,,---,0.01,VWS V13.01,2013-10-08 00:04:00,
2013-10-07 19:09:00,66.5,48.3,30.08,NE,42,0.0,1.0,52,0.00,,---,0.01,VWS V13.01,2013-10-08 00:09:00,
2013-10-07 19:14:00,66.2,48.6,30.08,NE,43,0.0,1.0,53,0.00,,---,0.01,VWS V13.01,2013-10-08 00:14:00,
2013-10-07 19:19:00,66.0,48.4,30.08,NE,43,0.0,1.0,53,0.00,,---,0.01,VWS V13.01,2013-10-08 00:19:00,
2013-10-07 19:24:00,65.7,48.1,30.08,NE,43,0.0,2.0,53,0.00,,---,0.01,VWS V13.01,2013-10-08 00:24:00,
2013-10-07 19:29:00,65.5,48.4,30.08,NE,42,0.0,2.0,54,0.00,,---,0.01,VWS V13.01,2013-10-08 00:29:00,
2013-10-07 19:34:00,65.2,48.2,30.08,NE,42,0.0,2.0,54,0.00,,---,0.01,VWS V13.01,2013-10-08 00:34:00,
2013-10-07 19:39:00,65.0,48.5,30.09,NE,43,0.0,0.0,55,0.00,,---,0.01,VWS V13.01,2013-10-08 00:39:00,
2013-10-07 19:44:00,64.8,48.3,30.09,NE,43,0.0,0.0,55,0.00,,---,0.01,VWS V13.01,2013-10-08 00:44:00,
2013-10-07 19:49:00,64.5,48.0,30.09,NE,43,0.0,0.0,55,0.00,,---,0.01,VWS V13.01,2013-10-08 00:49:00,
2013-10-07 19:55:00,64.2,47.7,30.09,NE,42,0.0,3.0,55,0.00,,---,0.01,VWS V13.01,2013-10-08 00:55:00,
2013-10-07 20:00:00,64.0,48.0,30.09,NE,42,0.0,3.0,56,0.00,,---,0.01,VWS V13.01,2013-10-08 01:00:00,
2013-10-07 20:05:00,63.8,48.3,30.09,NE,43,0.0,3.0,57,0.00,,---,0.01,VWS V13.01,2013-10-08 01:05:00,
2013-10-07 20:10:00,63.6,48.1,30.09,NE,42,0.0,0.0,57,0.00,,---,0.01,VWS V13.01,2013-10-08 01:10:00,
2013-10-07 20:15:00,63.4,47.9,30.09,NE,43,0.0,0.0,57,0.00,,---,0.01,VWS V13.01,2013-10-08 01:15:00,
2013-10-07 20:20:00,63.2,48.2,30.09,NE,42,0.0,0.0,58,0.00,,---,0.01,VWS V13.01,2013-10-08 01:20:00,
2013-10-07 20:25:00,63.0,48.0,30.10,NE,43,0.0,0.0,58,0.00,,---,0.01,VWS V13.01,2013-10-08 01:25:00,
2013-10-07 20:30:00,62.8,47.8,30.10,NE,42,0.0,0.0,58,0.00,,---,0.01,VWS V13.01,2013-10-08 01:30:00,
2013-10-07 20:35:00,62.6,48.1,30.10,NE,42,0.0,2.0,59,0.00,,---,0.01,VWS V13.01,2013-10-08 01:35:00,
2013-10-07 20:40:00,62.4,47.9,30.10,NE,42,0.0,4.0,59,0.00,,---,0.01,VWS V13.01,2013-10-08 01:40:00,
2013-10-07 20:45:00,62.2,48.2,30.11,NE,43,0.0,4.0,60,0.00,,---,0.01,VWS V13.01,2013-10-08 01:45:00,
2013-10-07 20:51:00,62.1,48.1,30.11,NE,43,0.0,4.0,60,0.00,,---,0.01,VWS V13.01,2013-10-08 01:51:00,
2013-10-07 20:56:00,61.9,48.3,30.11,NE,42,0.0,4.0,61,0.00,,---,0.01,VWS V13.01,2013-10-08 01:56:00,
2013-10-07 21:01:00,61.7,48.6,30.11,NE,42,0.0,4.0,62,0.00,,---,0.01,VWS V13.01,2013-10-08 02:01:00,
2013-10-07 21:06:00,61.6,48.5,30.11,NE,42,0.0,5.0,62,0.00,,---,0.01,VWS V13.01,2013-10-08 02:06:00,
2013-10-07 21:11:00,61.5,48.4,30.11,NE,42,2.0,4.0,62,0.00,,---,0.01,VWS V13.01,2013-10-08 02:11:00,
2013-10-07 21:16:00,61.4,48.7,30.11,NE,42,0.0,4.0,63,0.00,,---,0.01,VWS V13.01,2013-10-08 02:16:00,
2013-10-07 21:21:00,61.3,48.6,30.11,NE,42,0.0,4.0,63,0.00,,---,0.01,VWS V13.01,2013-10-08 02:21:00,
2013-10-07 21:26:00,61.2,48.5,30.11,NE,43,0.0,4.0,63,0.00,,---,0.01,VWS V13.01,2013-10-08 02:26:00,
2013-10-07 21:31:00,61.1,48.4,30.11,NE,43,0.0,4.0,63,0.00,,---,0.01,VWS V13.01,2013-10-08 02:31:00,
2013-10-07 21:36:00,60.9,48.7,30.11,NE,43,0.0,4.0,64,0.00,,---,0.01,VWS V13.01,2013-10-08 02:36:00,
2013-10-07 21:41:00,60.7,48.5,30.11,NE,43,4.0,4.0,64,0.00,,---,0.01,VWS V13.01,2013-10-08 02:41:00,
2013-10-07 21:46:00,60.6,48.8,30.12,NE,43,2.0,4.0,65,0.00,,---,0.01,VWS V13.01,2013-10-08 02:46:00,
2013-10-07 21:52:00,60.4,48.6,30.12,NE,42,2.0,4.0,65,0.00,,---,0.01,VWS V13.01,2013-10-08 02:52:00,
2013-10-07 21:57:00,60.3,48.5,30.12,NE,43,0.0,4.0,65,0.00,,---,0.01,VWS V13.01,2013-10-08 02:57:00,
2013-10-07 22:02:00,60.1,48.7,30.12,NE,43,0.0,4.0,66,0.00,,---,0.01,VWS V13.01,2013-10-08 03:02:00,
2013-10-07 22:07:00,60.0,49.0,30.12,NE,43,2.0,4.0,67,0.00,,---,0.01,VWS V13.01,2013-10-08 03:07:00,
2013-10-07 22:12:00,59.8,48.8,30.12,NE,42,0.0,3.0,67,0.00,,---,0.01,VWS V13.01,2013-10-08 03:12:00,
2013-10-07 22:17:00,59.6,48.6,30.13,NE,43,3.0,3.0,67,0.00,,---,0.01,VWS V13.01,2013-10-08 03:17:00,
2013-10-07 22:22:00,59.4,48.8,30.12,NE,42,3.0,4.0,68,0.00,,---,0.01,VWS V13.01,2013-10-08 03:22:00,
2013-10-07 22:27:00,59.1,48.6,30.13,NE,42,0.0,4.0,68,0.00,,---,0.01,VWS V13.01,2013-10-08 03:27:00,
2013-10-07 22:32:00,59.0,48.5,30.13,NE,43,0.0,4.0,68,0.00,,---,0.01,VWS V13.01,2013-10-08 03:32:00,
2013-10-07 22:37:00,59.0,48.5,30.13,NE,42,0.0,2.0,68,0.00,,---,0.01,VWS V13.01,2013-10-08 03:37:00,
2013-10-07 22:42:00,59.0,48.5,30.13,NE,42,2.0,3.0,68,0.00,,---,0.01,VWS V13.01,2013-10-08 03:42:00,
2013-10-07 22:48:00,59.0,48.5,30.13,NE,42,0.0,3.0,68,0.00,,---,0.01,VWS V13.01,2013-10-08 03:48:00,
2013-10-07 22:53:00,58.7,48.6,30.13,NE,42,0.0,3.0,69,0.00,,---,0.01,VWS V13.01,2013-10-08 03:53:00,
2013-10-07 22:58:00,58.7,48.6,30.13,NE,42,0.0,3.0,69,0.00,,---,0.01,VWS V13.01,2013-10-08 03:58:00,
2013-10-07 23:01:00,58.6,48.5,30.13,NE,43,0.0,3.0,69,0.00,,---,0.01,VWS V13.01,2013-10-08 04:01:00,
2013-10-07 23:02:00,58.6,48.5,30.13,NE,43,0.0,3.0,69,0.00,,---,0.01,VWS V13.01,2013-10-08 04:02:00,
2013-10-07 23:04:00,58.5,48.4,30.13,NE,43,0.0,3.0,69,0.00,,---,0.01,VWS V13.01,2013-10-08 04:04:00,
2013-10-07 23:09:00,58.4,48.3,30.13,NE,43,0.0,0.0,69,0.00,,---,0.01,VWS V13.01,2013-10-08 04:09:00,
2013-10-07 23:14:00,58.3,48.2,30.13,NE,42,0.0,0.0,69,0.00,,---,0.01,VWS V13.01,2013-10-08 04:14:00,
2013-10-07 23:19:00,58.2,48.1,30.13,NE,42,0.0,0.0,69,0.00,,---,0.01,VWS V13.01,2013-10-08 04:19:00,
2013-10-07 23:24:00,58.0,47.9,30.13,NE,43,0.0,0.0,69,0.00,,---,0.01,VWS V13.01,2013-10-08 04:24:00,
2013-10-07 23:29:00,57.9,48.2,30.13,NE,42,0.0,0.0,70,0.00,,---,0.01,VWS V13.01,2013-10-08 04:29:00,
2013-10-07 23:35:00,57.7,48.0,30.13,NE,43,0.0,0.0,70,0.00,,---,0.01,VWS V13.01,2013-10-08 04:35:00,
2013-10-07 23:40:00,57.6,47.9,30.12,NE,42,0.0,0.0,70,0.00,,---,0.01,VWS V13.01,2013-10-08 04:40:00,
2013-10-07 23:45:00,57.4,48.1,30.12,NE,42,0.0,0.0,71,0.00,,---,0.01,VWS V13.01,2013-10-08 04:45:00,
2013-10-07 23:50:00,57.2,47.9,30.12,NE,43,0.0,0.0,71,0.00,,---,0.01,VWS V13.01,2013-10-08 04:50:00,
2013-10-07 23:55:00,57.1,47.8,30.12,NE,43,0.0,0.0,71,0.00,,---,0.01,VWS V13.01,2013-10-08 04:55:00,